createdAt,value
2023-05-14T00:00:57.789Z,6.60
2023-05-14T00:01:58.758Z,7.20
2023-05-14T00:02:59.739Z,6.90
2023-05-14T00:04:00.411Z,6.90
2023-05-14T00:05:00.805Z,7.40
2023-05-14T00:06:01.719Z,6.50
2023-05-14T00:07:02.579Z,6.90
2023-05-14T00:08:03.489Z,6.40
2023-05-14T00:09:04.323Z,6.50
2023-05-14T00:10:05.205Z,6.60
2023-05-14T00:11:06.093Z,6.90
2023-05-14T00:12:06.989Z,7.30
2023-05-14T00:13:07.877Z,7.50
2023-05-14T00:14:08.770Z,6.40
2023-05-14T00:15:09.632Z,5.80
2023-05-14T00:16:10.638Z,6.40
2023-05-14T00:17:11.041Z,6.50
2023-05-14T00:18:11.938Z,7.30
2023-05-14T00:19:12.841Z,7.50
2023-05-14T00:20:13.693Z,7.00
2023-05-14T00:21:14.618Z,7.40
2023-05-14T00:22:15.476Z,7.40
2023-05-14T00:23:16.352Z,7.50
2023-05-14T00:24:17.261Z,7.50
2023-05-14T00:25:18.152Z,7.10
2023-05-14T00:26:19.043Z,6.90
2023-05-14T00:27:19.916Z,7.30
2023-05-14T00:28:20.799Z,7.50
2023-05-14T00:29:21.680Z,7.80
2023-05-14T00:30:22.899Z,7.60
2023-05-14T00:31:23.463Z,7.70
2023-05-14T00:32:24.316Z,8.00
2023-05-14T00:33:25.183Z,8.10
2023-05-14T00:34:26.980Z,8.10
2023-05-14T00:35:26.847Z,7.70
2023-05-14T00:36:27.762Z,8.20
2023-05-14T00:37:28.626Z,8.00
2023-05-14T00:38:29.520Z,7.80
2023-05-14T00:39:30.379Z,7.60
2023-05-14T00:40:31.246Z,7.70
2023-05-14T00:41:32.138Z,7.70
2023-05-14T00:42:33.027Z,8.30
2023-05-14T00:43:33.882Z,8.10
2023-05-14T00:44:34.742Z,8.00
2023-05-14T00:45:35.608Z,8.00
2023-05-14T00:46:36.568Z,7.80
2023-05-14T00:47:37.552Z,8.00
2023-05-14T00:48:38.438Z,8.40
2023-05-14T00:49:39.299Z,7.80
2023-05-14T00:50:40.177Z,8.70
2023-05-14T00:51:40.781Z,7.60
2023-05-14T00:52:41.639Z,7.90
2023-05-14T00:53:42.519Z,7.70
2023-05-14T00:54:43.400Z,7.70
2023-05-14T00:55:44.284Z,7.70
2023-05-14T00:56:45.186Z,7.00
2023-05-14T00:57:46.057Z,7.80
2023-05-14T00:58:46.933Z,7.80
2023-05-14T00:59:47.818Z,7.80
2023-05-14T01:00:48.800Z,8.00
2023-05-14T01:01:49.696Z,7.50
2023-05-14T01:02:50.654Z,7.40
2023-05-14T01:03:51.244Z,7.40
2023-05-14T01:04:51.633Z,8.00
2023-05-14T01:05:52.533Z,8.30
2023-05-14T01:06:53.422Z,7.90
2023-05-14T01:07:54.300Z,7.80
2023-05-14T01:08:55.170Z,8.50
2023-05-14T01:09:56.048Z,8.20
2023-05-14T01:10:56.916Z,7.70
2023-05-14T01:11:59.243Z,7.70
2023-05-14T01:12:58.606Z,7.60
2023-05-14T01:13:59.496Z,7.60
2023-05-14T01:15:00.350Z,7.40
2023-05-14T01:16:01.236Z,7.30
2023-05-14T01:17:02.128Z,7.90
2023-05-14T01:18:03.041Z,7.90
2023-05-14T01:19:03.987Z,7.70
2023-05-14T01:20:04.917Z,7.90
2023-05-14T01:21:05.751Z,7.90
2023-05-14T01:22:06.681Z,7.80
2023-05-14T01:23:07.540Z,7.50
2023-05-14T01:24:08.451Z,7.80
2023-05-14T01:25:09.325Z,7.70
2023-05-14T01:26:10.231Z,7.90
2023-05-14T01:27:11.117Z,8.00
2023-05-14T01:28:11.994Z,8.10
2023-05-14T01:29:12.873Z,8.40
2023-05-14T01:30:13.756Z,8.40
2023-05-14T01:31:14.677Z,8.60
2023-05-14T01:32:15.562Z,8.90
2023-05-14T01:33:16.442Z,8.90
2023-05-14T01:34:17.316Z,7.90
2023-05-14T01:35:18.211Z,8.50
2023-05-14T01:36:19.075Z,8.20
2023-05-14T01:37:19.995Z,8.60
2023-05-14T01:38:20.872Z,7.70
2023-05-14T01:39:21.742Z,7.90
2023-05-14T01:40:22.796Z,7.30
2023-05-14T01:41:23.284Z,7.60
2023-05-14T01:42:24.244Z,7.90
2023-05-14T01:43:25.144Z,7.80
2023-05-14T01:44:26.031Z,8.20
2023-05-14T01:45:26.928Z,9.40
2023-05-14T01:46:27.856Z,9.10
2023-05-14T01:47:28.804Z,9.40
2023-05-14T01:48:29.663Z,9.50
2023-05-14T01:49:30.551Z,9.40
2023-05-14T01:50:31.435Z,9.30
2023-05-14T01:51:32.324Z,9.10
2023-05-14T01:52:33.232Z,8.50
2023-05-14T01:53:34.118Z,8.50
2023-05-14T01:54:34.988Z,8.10
2023-05-14T01:55:35.854Z,8.20
2023-05-14T01:56:36.759Z,8.10
2023-05-14T01:57:37.685Z,8.00
2023-05-14T01:58:38.553Z,8.10
2023-05-14T01:59:39.450Z,8.70
2023-05-14T02:00:40.316Z,8.50
2023-05-14T02:01:41.420Z,7.80
2023-05-14T02:02:41.849Z,8.50
2023-05-14T02:03:42.808Z,8.50
2023-05-14T02:04:43.655Z,8.50
2023-05-14T02:05:44.553Z,8.20
2023-05-14T02:06:45.421Z,9.00
2023-05-14T02:07:46.354Z,9.50
2023-05-14T02:08:47.243Z,9.10
2023-05-14T02:09:48.116Z,9.70
2023-05-14T02:10:48.983Z,10.00
2023-05-14T02:11:49.859Z,10.20
2023-05-14T02:12:50.779Z,10.30
2023-05-14T02:13:51.663Z,10.80
2023-05-14T02:14:52.532Z,10.30
2023-05-14T02:15:53.456Z,9.30
2023-05-14T02:16:54.326Z,10.10
2023-05-14T02:17:55.239Z,10.30
2023-05-14T02:18:56.137Z,9.50
2023-05-14T02:19:56.977Z,8.90
2023-05-14T02:20:57.880Z,9.60
2023-05-14T02:21:58.864Z,10.00
2023-05-14T02:22:59.755Z,9.30
2023-05-14T02:24:00.604Z,8.10
2023-05-14T02:25:01.513Z,7.80
2023-05-14T02:26:02.355Z,9.20
2023-05-14T02:27:03.272Z,9.50
2023-05-14T02:28:04.150Z,11.20
2023-05-14T02:29:05.031Z,11.00
2023-05-14T02:30:05.910Z,11.40
2023-05-14T02:31:06.843Z,11.60
2023-05-14T02:32:07.741Z,10.60
2023-05-14T02:33:08.724Z,10.90
2023-05-14T02:34:09.182Z,9.80
2023-05-14T02:35:10.074Z,11.40
2023-05-14T02:36:10.913Z,11.20
2023-05-14T02:37:11.794Z,11.10
2023-05-14T02:38:12.724Z,11.00
2023-05-14T02:39:13.584Z,10.80
2023-05-14T02:40:14.461Z,11.30
2023-05-14T02:41:15.346Z,11.20
2023-05-14T02:42:16.272Z,10.90
2023-05-14T02:43:17.159Z,10.60
2023-05-14T02:44:18.050Z,10.20
2023-05-14T02:45:18.931Z,10.00
2023-05-14T02:46:19.943Z,10.00
2023-05-14T02:47:20.830Z,10.00
2023-05-14T02:48:21.722Z,11.30
2023-05-14T02:49:22.590Z,10.40
2023-05-14T02:50:23.860Z,11.10
2023-05-14T02:51:24.365Z,10.30
2023-05-14T02:52:25.256Z,9.90
2023-05-14T02:53:26.208Z,10.50
2023-05-14T02:54:27.086Z,10.90
2023-05-14T02:55:27.968Z,10.80
2023-05-14T02:56:28.864Z,11.00
2023-05-14T02:57:29.755Z,11.50
2023-05-14T02:58:30.676Z,10.80
2023-05-14T02:59:31.588Z,10.20
2023-05-14T03:00:32.418Z,10.00
2023-05-14T03:01:33.133Z,10.50
2023-05-14T03:02:33.973Z,10.20
2023-05-14T03:03:34.673Z,9.90
2023-05-14T03:04:35.457Z,9.50
2023-05-14T03:05:36.381Z,9.50
2023-05-14T03:06:37.262Z,9.40
2023-05-14T03:07:38.148Z,9.60
2023-05-14T03:08:39.165Z,9.50
2023-05-14T03:09:40.013Z,9.90
2023-05-14T03:10:40.925Z,9.80
2023-05-14T03:11:41.816Z,9.80
2023-05-14T03:12:42.710Z,9.50
2023-05-14T03:13:44.024Z,9.30
2023-05-14T03:14:44.415Z,10.60
2023-05-14T03:15:45.282Z,10.20
2023-05-14T03:16:45.867Z,10.40
2023-05-14T03:17:46.781Z,10.70
2023-05-14T03:18:47.720Z,9.10
2023-05-14T03:19:48.585Z,9.50
2023-05-14T03:20:49.464Z,9.50
2023-05-14T03:21:50.350Z,9.10
2023-05-14T03:22:51.214Z,9.60
2023-05-14T03:23:52.134Z,9.00
2023-05-14T03:24:53.008Z,9.80
2023-05-14T03:25:53.891Z,9.50
2023-05-14T03:26:54.759Z,9.40
2023-05-14T03:27:55.645Z,9.80
2023-05-14T03:28:56.551Z,9.40
2023-05-14T03:29:57.467Z,9.50
2023-05-14T03:30:58.443Z,10.20
2023-05-14T03:31:59.276Z,10.60
2023-05-14T03:33:00.267Z,10.00
2023-05-14T03:34:01.169Z,10.00
2023-05-14T03:35:02.050Z,10.00
2023-05-14T03:36:02.903Z,9.60
2023-05-14T03:37:03.778Z,9.40
2023-05-14T03:38:04.643Z,9.30
2023-05-14T03:39:05.572Z,9.10
2023-05-14T03:40:06.436Z,9.90
2023-05-14T03:41:07.335Z,9.90
2023-05-14T03:42:08.221Z,10.10
2023-05-14T03:43:09.088Z,9.60
2023-05-14T03:44:09.993Z,8.90
2023-05-14T03:45:10.879Z,8.80
2023-05-14T03:46:11.751Z,9.60
2023-05-14T03:47:12.614Z,9.70
2023-05-14T03:48:13.599Z,9.10
2023-05-14T03:49:14.484Z,8.80
2023-05-14T03:50:15.387Z,8.90
2023-05-14T03:51:16.228Z,8.50
2023-05-14T03:52:17.106Z,8.50
2023-05-14T03:53:17.984Z,8.60
2023-05-14T03:54:18.891Z,9.20
2023-05-14T03:55:19.736Z,9.00
2023-05-14T03:56:20.610Z,8.70
2023-05-14T03:57:21.521Z,8.90
2023-05-14T03:58:22.382Z,9.70
2023-05-14T03:59:23.318Z,9.30
2023-05-14T04:00:24.696Z,8.70
2023-05-14T04:01:24.735Z,9.00
2023-05-14T04:02:25.662Z,9.20
2023-05-14T04:03:26.572Z,9.30
2023-05-14T04:04:27.528Z,9.80
2023-05-14T04:05:28.388Z,9.50
2023-05-14T04:06:29.247Z,9.20
2023-05-14T04:07:30.125Z,9.80
2023-05-14T04:08:31.036Z,9.00
2023-05-14T04:09:31.926Z,8.70
2023-05-14T04:10:32.794Z,9.80
2023-05-14T04:11:33.671Z,9.70
2023-05-14T04:12:34.552Z,9.30
2023-05-14T04:13:35.472Z,8.80
2023-05-14T04:14:36.334Z,10.30
2023-05-14T04:15:37.198Z,9.20
2023-05-14T04:16:38.135Z,8.70
2023-05-14T04:17:38.979Z,8.90
2023-05-14T04:18:39.877Z,8.70
2023-05-14T04:19:40.732Z,8.40
2023-05-14T04:20:41.623Z,8.60
2023-05-14T04:21:42.507Z,8.80
2023-05-14T04:22:43.392Z,8.80
2023-05-14T04:23:44.276Z,8.40
2023-05-14T04:24:45.196Z,8.80
2023-05-14T04:25:46.057Z,9.10
2023-05-14T04:26:46.947Z,8.80
2023-05-14T04:27:47.809Z,7.60
2023-05-14T04:28:48.694Z,7.80
2023-05-14T04:29:49.577Z,8.20
2023-05-14T04:30:50.436Z,8.30
2023-05-14T04:31:51.385Z,8.50
2023-05-14T04:32:51.944Z,8.30
2023-05-14T04:33:52.895Z,8.00
2023-05-14T04:34:53.758Z,8.80
2023-05-14T04:35:54.647Z,8.60
2023-05-14T04:36:55.522Z,8.70
2023-05-14T04:37:56.401Z,8.60
2023-05-14T04:38:57.274Z,8.90
2023-05-14T04:39:58.175Z,9.30
2023-05-14T04:40:59.033Z,8.90
2023-05-14T04:41:59.903Z,8.10
2023-05-14T04:43:00.783Z,8.40
2023-05-14T04:44:01.653Z,8.90
2023-05-14T04:45:02.545Z,8.60
2023-05-14T04:46:03.458Z,8.40
2023-05-14T04:47:04.298Z,8.70
2023-05-14T04:48:05.213Z,8.50
2023-05-14T04:49:06.093Z,8.50
2023-05-14T04:50:06.974Z,8.20
2023-05-14T04:51:07.862Z,8.30
2023-05-14T04:52:08.745Z,8.30
2023-05-14T04:53:09.596Z,8.40
2023-05-14T04:54:10.488Z,9.00
2023-05-14T04:55:11.409Z,9.70
2023-05-14T04:56:12.247Z,9.10
2023-05-14T04:57:13.149Z,8.90
2023-05-14T04:58:14.036Z,9.00
2023-05-14T04:59:14.574Z,8.60
2023-05-14T05:00:15.462Z,8.70
2023-05-14T05:01:16.433Z,7.80
2023-05-14T05:02:17.277Z,9.40
2023-05-14T05:03:18.216Z,8.70
2023-05-14T05:04:19.195Z,8.60
2023-05-14T05:05:20.099Z,8.50
2023-05-14T05:06:20.979Z,8.10
2023-05-14T05:07:21.901Z,9.20
2023-05-14T05:08:22.782Z,8.60
2023-05-14T05:09:23.656Z,9.40
2023-05-14T05:10:24.950Z,9.10
2023-05-14T05:11:25.493Z,9.50
2023-05-14T05:12:26.378Z,9.40
2023-05-14T05:13:27.243Z,10.50
2023-05-14T05:14:28.150Z,9.00
2023-05-14T05:15:29.035Z,9.20
2023-05-14T05:16:30.082Z,8.90
2023-05-14T05:17:30.608Z,8.90
2023-05-14T05:18:31.504Z,9.40
2023-05-14T05:19:42.319Z,9.00
2023-05-14T05:20:34.178Z,9.30
2023-05-14T05:21:34.056Z,8.40
2023-05-14T05:22:34.911Z,9.20
2023-05-14T05:23:35.794Z,9.40
2023-05-14T05:24:36.645Z,9.50
2023-05-14T05:25:37.547Z,9.00
2023-05-14T05:26:38.399Z,9.10
2023-05-14T05:27:39.284Z,8.70
2023-05-14T05:28:40.161Z,9.10
2023-05-14T05:29:41.054Z,9.20
2023-05-14T05:30:41.948Z,9.10
2023-05-14T05:31:42.914Z,9.40
2023-05-14T05:32:43.853Z,9.60
2023-05-14T05:33:44.724Z,10.00
2023-05-14T05:34:45.603Z,9.30
2023-05-14T05:35:46.514Z,9.80
2023-05-14T05:36:47.385Z,9.00
2023-05-14T05:37:48.260Z,8.30
2023-05-14T05:38:49.158Z,8.30
2023-05-14T05:39:50.030Z,8.60
2023-05-14T05:40:51.272Z,8.20
2023-05-14T05:41:51.638Z,8.60
2023-05-14T05:42:52.567Z,7.90
2023-05-14T05:43:53.418Z,8.20
2023-05-14T05:44:54.282Z,7.70
2023-05-14T05:45:55.192Z,8.10
2023-05-14T05:46:56.162Z,8.50
2023-05-14T05:47:56.630Z,8.50
2023-05-14T05:48:57.525Z,8.30
2023-05-14T05:49:58.392Z,8.20
2023-05-14T05:50:59.325Z,8.10
2023-05-14T05:52:00.206Z,8.70
2023-05-14T05:53:01.091Z,8.30
2023-05-14T05:54:02.002Z,8.00
2023-05-14T05:55:02.840Z,7.60
2023-05-14T05:56:04.195Z,8.70
2023-05-14T05:57:04.557Z,8.00
2023-05-14T05:58:05.438Z,7.70
2023-05-14T05:59:06.304Z,8.40
2023-05-14T06:00:07.236Z,7.90
2023-05-14T06:01:08.185Z,7.60
2023-05-14T06:02:09.127Z,7.80
2023-05-14T06:03:10.039Z,7.30
2023-05-14T06:04:10.941Z,7.60
2023-05-14T06:05:11.839Z,7.60
2023-05-14T06:06:12.753Z,7.70
2023-05-14T06:07:13.620Z,7.30
2023-05-14T06:08:14.521Z,7.10
2023-05-14T06:09:15.418Z,6.50
2023-05-14T06:10:16.312Z,6.60
2023-05-14T06:11:17.251Z,6.60
2023-05-14T06:12:18.086Z,6.70
2023-05-14T06:13:18.968Z,6.50
2023-05-14T06:14:19.853Z,6.00
2023-05-14T06:15:20.746Z,6.40
2023-05-14T06:16:21.666Z,6.00
2023-05-14T06:17:22.569Z,5.90
2023-05-14T06:18:23.447Z,5.60
2023-05-14T06:19:24.318Z,5.90
2023-05-14T06:20:25.442Z,5.30
2023-05-14T06:21:26.018Z,5.00
2023-05-14T06:22:26.902Z,5.20
2023-05-14T06:23:27.772Z,4.80
2023-05-14T06:24:28.639Z,5.30
2023-05-14T06:25:29.557Z,4.60
2023-05-14T06:26:30.439Z,4.60
2023-05-14T06:27:31.312Z,4.70
2023-05-14T06:28:32.190Z,4.50
2023-05-14T06:29:33.157Z,4.90
2023-05-14T06:30:34.016Z,4.60
2023-05-14T06:31:34.948Z,4.80
2023-05-14T06:32:35.842Z,4.70
2023-05-14T06:33:36.713Z,4.30
2023-05-14T06:34:37.595Z,4.30
2023-05-14T06:35:38.484Z,4.40
2023-05-14T06:36:39.384Z,4.40
2023-05-14T06:37:40.252Z,4.10
2023-05-14T06:38:41.135Z,4.20
2023-05-14T06:39:42.022Z,4.10
2023-05-14T06:40:42.909Z,4.10
2023-05-14T06:41:43.818Z,3.90
2023-05-14T06:42:44.691Z,4.30
2023-05-14T06:43:45.576Z,4.10
2023-05-14T06:44:46.453Z,4.20
2023-05-14T06:45:47.284Z,4.00
2023-05-14T06:46:48.281Z,3.90
2023-05-14T06:47:48.686Z,4.20
2023-05-14T06:48:49.612Z,3.70
2023-05-14T06:49:50.452Z,4.00
2023-05-14T06:50:51.328Z,4.20
2023-05-14T06:51:52.272Z,4.10
2023-05-14T06:52:53.121Z,4.00
2023-05-14T06:53:54.007Z,4.00
2023-05-14T06:54:54.898Z,3.70
2023-05-14T06:55:55.750Z,3.80
2023-05-14T06:56:56.688Z,3.80
2023-05-14T06:57:57.547Z,3.80
2023-05-14T06:58:58.445Z,3.50
2023-05-14T06:59:59.348Z,3.70
2023-05-14T07:01:00.275Z,3.40
2023-05-14T07:02:01.191Z,3.90
2023-05-14T07:03:02.132Z,3.50
2023-05-14T07:04:03.025Z,3.60
2023-05-14T07:05:03.864Z,3.80
2023-05-14T07:06:04.773Z,3.50
2023-05-14T07:07:05.659Z,3.70
2023-05-14T07:08:06.532Z,3.60
2023-05-14T07:09:07.419Z,3.20
2023-05-14T07:10:08.292Z,3.10
2023-05-14T07:11:09.163Z,3.50
2023-05-14T07:12:10.071Z,3.10
2023-05-14T07:13:10.975Z,3.50
2023-05-14T07:14:11.824Z,3.60
2023-05-14T07:15:12.700Z,3.50
2023-05-14T07:16:13.591Z,3.50
2023-05-14T07:17:14.505Z,3.30
2023-05-14T07:18:15.403Z,3.40
2023-05-14T07:19:16.321Z,3.20
2023-05-14T07:20:17.247Z,3.10
2023-05-14T07:21:18.146Z,3.30
2023-05-14T07:22:19.065Z,3.20
2023-05-14T07:23:20.180Z,3.00
2023-05-14T07:24:20.562Z,3.30
2023-05-14T07:25:21.425Z,3.30
2023-05-14T07:26:22.314Z,3.00
2023-05-14T07:27:23.240Z,3.30
2023-05-14T07:28:24.096Z,3.20
2023-05-14T07:29:24.997Z,3.20
2023-05-14T07:30:26.155Z,3.00
2023-05-14T07:31:26.801Z,3.40
2023-05-14T07:32:27.690Z,3.20
2023-05-14T07:33:28.542Z,3.10
2023-05-14T07:34:29.423Z,2.90
2023-05-14T07:35:30.304Z,2.90
2023-05-14T07:36:31.183Z,3.10
2023-05-14T07:37:32.095Z,2.90
2023-05-14T07:38:32.994Z,3.10
2023-05-14T07:39:33.861Z,3.20
2023-05-14T07:40:34.738Z,3.20
2023-05-14T07:41:35.614Z,2.90
2023-05-14T07:42:37.445Z,2.90
2023-05-14T07:43:36.990Z,3.20
2023-05-14T07:44:37.867Z,2.90
2023-05-14T07:45:38.750Z,3.00
2023-05-14T07:46:39.660Z,3.20
2023-05-14T07:47:40.704Z,3.30
2023-05-14T07:48:41.249Z,3.30
2023-05-14T07:49:42.149Z,3.10
2023-05-14T07:50:43.044Z,3.20
2023-05-14T07:51:43.970Z,3.30
2023-05-14T07:52:44.841Z,3.20
2023-05-14T07:53:45.733Z,3.10
2023-05-14T07:54:47.981Z,3.20
2023-05-14T07:55:47.207Z,3.10
2023-05-14T07:56:48.081Z,3.20
2023-05-14T07:57:48.993Z,3.00
2023-05-14T07:58:49.860Z,3.20
2023-05-14T07:59:50.762Z,2.90
2023-05-14T08:00:51.634Z,3.00
2023-05-14T08:01:52.533Z,3.10
2023-05-14T08:02:53.481Z,3.20
2023-05-14T08:03:54.072Z,3.00
2023-05-14T08:04:54.504Z,2.80
2023-05-14T08:05:55.424Z,2.90
2023-05-14T08:06:57.118Z,3.00
2023-05-14T08:07:56.999Z,3.10
2023-05-14T08:08:57.875Z,3.20
2023-05-14T08:09:58.784Z,3.20
2023-05-14T08:10:59.751Z,2.80
2023-05-14T08:12:00.166Z,2.70
2023-05-14T08:13:01.108Z,2.70
2023-05-14T08:14:01.992Z,2.60
2023-05-14T08:15:02.890Z,2.80
2023-05-14T08:16:03.779Z,2.70
2023-05-14T08:17:04.706Z,2.50
2023-05-14T08:18:05.680Z,2.50
2023-05-14T08:19:06.611Z,2.80
2023-05-14T08:20:07.543Z,2.80
2023-05-14T08:21:08.435Z,2.90
2023-05-14T08:22:09.332Z,2.80
2023-05-14T08:23:10.237Z,2.80
2023-05-14T08:24:11.083Z,2.80
2023-05-14T08:25:11.972Z,2.80
2023-05-14T08:26:12.830Z,2.70
2023-05-14T08:27:13.722Z,2.70
2023-05-14T08:28:14.637Z,2.60
2023-05-14T08:29:16.468Z,2.50
2023-05-14T08:30:16.221Z,2.40
2023-05-14T08:31:17.182Z,2.80
2023-05-14T08:32:23.417Z,2.60
2023-05-14T08:33:19.798Z,2.90
2023-05-14T08:34:19.677Z,2.70
2023-05-14T08:35:20.569Z,2.60
2023-05-14T08:36:21.461Z,2.80
2023-05-14T08:37:22.389Z,2.50
2023-05-14T08:38:23.257Z,2.70
2023-05-14T08:39:24.144Z,2.40
2023-05-14T08:40:25.365Z,2.40
2023-05-14T08:41:25.876Z,2.50
2023-05-14T08:42:26.790Z,2.40
2023-05-14T08:43:27.733Z,2.20
2023-05-14T08:44:28.574Z,2.60
2023-05-14T08:45:29.463Z,2.50
2023-05-14T08:46:30.335Z,2.60
2023-05-14T08:47:31.320Z,2.20
2023-05-14T08:48:31.902Z,2.50
2023-05-14T08:49:32.434Z,2.70
2023-05-14T08:50:33.295Z,2.50
2023-05-14T08:51:34.186Z,2.60
2023-05-14T08:52:35.061Z,2.50
2023-05-14T08:53:35.959Z,2.70
2023-05-14T08:54:36.840Z,2.60
2023-05-14T08:55:37.738Z,2.30
2023-05-14T08:56:38.616Z,2.20
2023-05-14T08:57:39.517Z,2.20
2023-05-14T08:58:40.464Z,2.20
2023-05-14T08:59:41.287Z,2.10
2023-05-14T09:00:42.165Z,2.30
2023-05-14T09:01:43.121Z,2.40
2023-05-14T09:02:44.020Z,2.50
2023-05-14T09:03:44.978Z,2.60
2023-05-14T09:04:45.835Z,2.30
2023-05-14T09:05:46.717Z,2.30
2023-05-14T09:06:47.595Z,2.40
2023-05-14T09:07:48.480Z,2.20
2023-05-14T09:08:49.367Z,2.70
2023-05-14T09:09:50.239Z,2.50
2023-05-14T09:10:51.148Z,2.60
2023-05-14T09:11:52.031Z,2.70
2023-05-14T09:12:52.882Z,2.70
2023-05-14T09:13:53.812Z,2.70
2023-05-14T09:14:54.703Z,2.50
2023-05-14T09:15:55.638Z,2.40
2023-05-14T09:16:56.512Z,2.50
2023-05-14T09:17:57.380Z,2.70
2023-05-14T09:18:58.273Z,2.40
2023-05-14T09:19:59.164Z,2.40
2023-05-14T09:21:00.025Z,2.40
2023-05-14T09:22:00.929Z,2.20
2023-05-14T09:23:01.800Z,2.40
2023-05-14T09:24:02.701Z,2.50
2023-05-14T09:25:03.618Z,2.40
2023-05-14T09:26:04.486Z,2.30
2023-05-14T09:27:05.363Z,2.60
2023-05-14T09:28:07.164Z,2.20
2023-05-14T09:29:07.076Z,2.20
2023-05-14T09:30:07.961Z,2.50
2023-05-14T09:31:08.851Z,2.30
2023-05-14T09:32:09.731Z,2.30
2023-05-14T09:33:10.715Z,2.20
2023-05-14T09:34:11.109Z,2.20
2023-05-14T09:35:11.995Z,2.50
2023-05-14T09:36:12.872Z,2.40
2023-05-14T09:37:13.750Z,2.40
2023-05-14T09:38:14.636Z,2.20
2023-05-14T09:39:15.543Z,2.30
2023-05-14T09:40:16.422Z,2.50
2023-05-14T09:41:17.335Z,2.20
2023-05-14T09:42:18.203Z,2.30
2023-05-14T09:43:19.101Z,2.30
2023-05-14T09:44:20.005Z,2.30
2023-05-14T09:45:20.870Z,2.30
2023-05-14T09:46:21.776Z,2.30
2023-05-14T09:47:22.725Z,2.20
2023-05-14T09:48:23.614Z,2.30
2023-05-14T09:49:24.504Z,2.20
2023-05-14T09:50:25.713Z,2.40
2023-05-14T09:51:26.274Z,2.50
2023-05-14T09:52:27.155Z,2.50
2023-05-14T09:53:28.072Z,2.30
2023-05-14T09:54:28.981Z,2.10
2023-05-14T09:55:29.863Z,2.50
2023-05-14T09:56:30.749Z,2.40
2023-05-14T09:57:31.637Z,2.70
2023-05-14T09:58:32.511Z,2.30
2023-05-14T09:59:33.414Z,2.60
2023-05-14T10:00:34.280Z,2.40
2023-05-14T10:01:35.237Z,2.60
2023-05-14T10:02:35.675Z,2.30
2023-05-14T10:03:36.555Z,2.50
2023-05-14T10:04:37.470Z,2.30
2023-05-14T10:05:38.354Z,2.60
2023-05-14T10:06:39.281Z,2.40
2023-05-14T10:07:40.137Z,2.70
2023-05-14T10:08:41.045Z,2.50
2023-05-14T10:09:41.903Z,2.50
2023-05-14T10:10:42.798Z,3.10
2023-05-14T10:11:43.695Z,2.80
2023-05-14T10:12:44.554Z,2.70
2023-05-14T10:13:45.424Z,2.90
2023-05-14T10:14:46.340Z,2.90
2023-05-14T10:15:47.197Z,2.90
2023-05-14T10:16:48.092Z,2.80
2023-05-14T10:17:49.040Z,2.60
2023-05-14T10:18:49.923Z,2.80
2023-05-14T10:19:50.859Z,2.40
2023-05-14T10:20:51.751Z,2.60
2023-05-14T10:21:52.636Z,2.40
2023-05-14T10:22:53.510Z,2.50
2023-05-14T10:23:54.396Z,2.60
2023-05-14T10:24:55.290Z,2.50
2023-05-14T10:25:56.182Z,2.50
2023-05-14T10:26:57.040Z,2.50
2023-05-14T10:27:57.946Z,2.40
2023-05-14T10:28:58.822Z,2.70
2023-05-14T10:29:59.757Z,2.70
2023-05-14T10:31:00.865Z,2.60
2023-05-14T10:32:01.348Z,2.50
2023-05-14T10:33:02.281Z,2.60
2023-05-14T10:34:03.177Z,2.50
2023-05-14T10:35:04.080Z,2.40
2023-05-14T10:36:04.968Z,3.00
2023-05-14T10:37:05.850Z,2.50
2023-05-14T10:38:06.752Z,2.70
2023-05-14T10:39:07.631Z,2.90
2023-05-14T10:40:08.508Z,2.60
2023-05-14T10:41:09.426Z,2.50
2023-05-14T10:42:10.294Z,2.30
2023-05-14T10:43:11.214Z,2.60
2023-05-14T10:44:12.064Z,2.40
2023-05-14T10:45:12.975Z,2.60
2023-05-14T10:46:13.936Z,2.80
2023-05-14T10:47:14.842Z,2.70
2023-05-14T10:48:15.716Z,2.70
2023-05-14T10:49:20.967Z,2.60
2023-05-14T10:50:18.645Z,2.60
2023-05-14T10:51:18.058Z,2.50
2023-05-14T10:52:18.910Z,2.80
2023-05-14T10:53:19.828Z,2.70
2023-05-14T10:54:20.678Z,2.60
2023-05-14T10:55:21.588Z,2.60
2023-05-14T10:56:22.470Z,2.60
2023-05-14T10:57:23.332Z,2.50
2023-05-14T10:58:24.205Z,2.50
2023-05-14T10:59:25.090Z,2.80
2023-05-14T11:00:26.209Z,2.40
2023-05-14T11:01:26.693Z,2.40
2023-05-14T11:02:27.585Z,2.50
2023-05-14T11:03:28.492Z,2.40
2023-05-14T11:04:29.360Z,2.50
2023-05-14T11:05:30.265Z,2.30
2023-05-14T11:06:31.155Z,2.30
2023-05-14T11:07:32.019Z,2.40
2023-05-14T11:08:32.888Z,2.30
2023-05-14T11:09:33.764Z,2.40
2023-05-14T11:10:34.680Z,2.30
2023-05-14T11:11:35.579Z,2.40
2023-05-14T11:12:36.463Z,2.40
2023-05-14T11:13:37.366Z,2.20
2023-05-14T11:14:38.237Z,2.30
2023-05-14T11:15:39.160Z,2.70
2023-05-14T11:16:40.064Z,2.50
2023-05-14T11:17:40.991Z,2.80
2023-05-14T11:18:42.038Z,2.40
2023-05-14T11:19:42.550Z,2.80
2023-05-14T11:20:43.452Z,2.40
2023-05-14T11:21:44.404Z,2.60
2023-05-14T11:22:45.258Z,3.10
2023-05-14T11:23:46.142Z,2.50
2023-05-14T11:24:47.026Z,2.60
2023-05-14T11:25:47.928Z,2.80
2023-05-14T11:26:48.799Z,2.80
2023-05-14T11:27:49.716Z,2.60
2023-05-14T11:28:50.560Z,2.70
2023-05-14T11:29:51.441Z,2.40
2023-05-14T11:30:52.338Z,2.80
2023-05-14T11:31:53.376Z,2.40
2023-05-14T11:32:53.835Z,2.60
2023-05-14T11:33:54.253Z,2.20
2023-05-14T11:34:55.127Z,2.20
2023-05-14T11:35:56.041Z,2.10
2023-05-14T11:36:56.904Z,2.20
2023-05-14T11:37:57.795Z,2.40
2023-05-14T11:38:58.707Z,2.20
2023-05-14T11:39:59.576Z,2.10
2023-05-14T11:41:00.499Z,2.20
2023-05-14T11:42:01.386Z,2.00
2023-05-14T11:43:02.269Z,2.10
2023-05-14T11:44:03.167Z,2.10
2023-05-14T11:45:04.092Z,2.00
2023-05-14T11:46:05.040Z,2.00
2023-05-14T11:47:05.873Z,2.10
2023-05-14T11:48:06.803Z,2.30
2023-05-14T11:49:07.642Z,2.10
2023-05-14T11:50:09.669Z,2.20
2023-05-14T11:51:09.315Z,2.40
2023-05-14T11:52:10.206Z,2.10
2023-05-14T11:53:11.060Z,2.00
2023-05-14T11:54:11.965Z,2.30
2023-05-14T11:55:12.875Z,2.40
2023-05-14T11:56:13.756Z,2.40
2023-05-14T11:57:14.638Z,2.30
2023-05-14T11:58:15.496Z,2.20
2023-05-14T11:59:16.406Z,2.10
2023-05-14T12:00:17.322Z,2.10
2023-05-14T12:01:18.839Z,2.60
2023-05-14T12:02:18.796Z,2.40
2023-05-14T12:03:19.843Z,2.30
2023-05-14T12:04:20.383Z,2.80
2023-05-14T12:05:21.269Z,3.20
2023-05-14T12:06:22.159Z,2.30
2023-05-14T12:07:23.032Z,2.60
2023-05-14T12:08:23.923Z,2.30
2023-05-14T12:09:24.847Z,2.30
2023-05-14T12:10:25.850Z,2.30
2023-05-14T12:11:26.741Z,2.10
2023-05-14T12:12:27.135Z,2.10
2023-05-14T12:13:28.006Z,2.00
2023-05-14T12:14:28.921Z,2.20
2023-05-14T12:15:29.833Z,2.30
2023-05-14T12:16:30.803Z,2.10
2023-05-14T12:17:31.665Z,2.30
2023-05-14T12:18:32.659Z,2.10
2023-05-14T12:19:33.180Z,2.40
2023-05-14T12:20:34.070Z,2.10
2023-05-14T12:21:35.006Z,2.30
2023-05-14T12:22:37.143Z,2.20
2023-05-14T12:23:36.573Z,2.50
2023-05-14T12:24:37.470Z,2.50
2023-05-14T12:25:38.360Z,2.30
2023-05-14T12:26:39.277Z,2.20
2023-05-14T12:27:40.177Z,2.50
2023-05-14T12:28:41.047Z,2.30
2023-05-14T12:29:41.928Z,2.50
2023-05-14T12:30:42.835Z,2.50
2023-05-14T12:31:43.788Z,2.50
2023-05-14T12:32:44.688Z,2.80
2023-05-14T12:33:45.607Z,2.50
2023-05-14T12:34:46.489Z,2.20
2023-05-14T12:35:47.389Z,2.50
2023-05-14T12:36:48.272Z,2.30
2023-05-14T12:37:49.165Z,2.30
2023-05-14T12:38:50.052Z,2.30
2023-05-14T12:39:50.921Z,2.30
2023-05-14T12:40:51.816Z,2.00
2023-05-14T12:41:52.712Z,2.20
2023-05-14T12:42:55.539Z,2.10
2023-05-14T12:43:54.563Z,2.30
2023-05-14T12:44:55.448Z,2.50
2023-05-14T12:45:56.330Z,2.40
2023-05-14T12:46:57.313Z,2.30
2023-05-14T12:47:58.170Z,2.20
2023-05-14T12:48:59.028Z,2.40
2023-05-14T12:49:59.911Z,2.20
2023-05-14T12:51:00.789Z,2.10
2023-05-14T12:52:17.420Z,2.10
2023-05-14T12:53:03.496Z,2.20
2023-05-14T12:54:03.359Z,2.20
2023-05-14T12:55:04.245Z,2.10
2023-05-14T12:56:05.118Z,2.00
2023-05-14T12:57:06.029Z,2.00
2023-05-14T12:58:06.895Z,2.10
2023-05-14T12:59:07.786Z,2.00
2023-05-14T13:00:08.789Z,1.80
2023-05-14T13:01:09.383Z,2.20
2023-05-14T13:02:09.784Z,1.90
2023-05-14T13:03:10.693Z,2.40
2023-05-14T13:04:11.551Z,2.10
2023-05-14T13:05:12.470Z,2.40
2023-05-14T13:06:13.399Z,1.80
2023-05-14T13:07:14.313Z,2.10
2023-05-14T13:08:15.197Z,2.00
2023-05-14T13:09:16.098Z,2.30
2023-05-14T13:10:17.002Z,2.20
2023-05-14T13:11:17.852Z,2.30
2023-05-14T13:12:18.747Z,2.00
2023-05-14T13:13:19.657Z,2.20
2023-05-14T13:14:20.628Z,2.20
2023-05-14T13:15:21.547Z,2.20
2023-05-14T13:16:22.116Z,2.20
2023-05-14T13:17:23.073Z,2.10
2023-05-14T13:18:23.966Z,2.10
2023-05-14T13:19:24.844Z,2.10
2023-05-14T13:20:25.717Z,2.20
2023-05-14T13:21:26.609Z,2.10
2023-05-14T13:22:27.500Z,2.10
2023-05-14T13:23:28.405Z,2.00
2023-05-14T13:24:29.289Z,2.10
2023-05-14T13:25:30.163Z,2.00
2023-05-14T13:26:31.088Z,2.10
2023-05-14T13:27:31.989Z,2.00
2023-05-14T13:28:32.869Z,2.00